sensor_id;sensor_type;location;lat;lon;timestamp;pressure;altitude;pressure_sealevel;temperature;humidity
75855;BME280;64502;59.976;30.316;2023-06-22T00:01:28;101119.38;;;21.41;47.89
75855;BME280;64502;59.976;30.316;2023-06-22T00:03:53;101114.31;;;21.38;48.62
75855;BME280;64502;59.976;30.316;2023-06-22T00:06:19;101114.88;;;21.32;48.30
75855;BME280;64502;59.976;30.316;2023-06-22T00:08:44;101100.22;;;21.26;48.62
75855;BME280;64502;59.976;30.316;2023-06-22T00:11:10;101100.66;;;21.22;49.39
75855;BME280;64502;59.976;30.316;2023-06-22T00:13:35;101096.44;;;21.19;49.19
75855;BME280;64502;59.976;30.316;2023-06-22T00:16:01;101095.88;;;21.16;49.40
75855;BME280;64502;59.976;30.316;2023-06-22T00:18:26;101086.28;;;21.13;49.03
75855;BME280;64502;59.976;30.316;2023-06-22T00:20:54;101085.06;;;21.08;49.46
75855;BME280;64502;59.976;30.316;2023-06-22T00:23:23;101088.47;;;21.00;49.43
75855;BME280;64502;59.976;30.316;2023-06-22T00:25:49;101085.09;;;20.98;49.50
75855;BME280;64502;59.976;30.316;2023-06-22T00:28:14;101084.53;;;20.94;49.82
75855;BME280;64502;59.976;30.316;2023-06-22T00:30:40;101077.63;;;20.92;49.77
75855;BME280;64502;59.976;30.316;2023-06-22T00:33:06;101079.63;;;20.90;49.50
75855;BME280;64502;59.976;30.316;2023-06-22T00:35:33;101076.25;;;20.88;50.06
75855;BME280;64502;59.976;30.316;2023-06-22T00:37:59;101078.22;;;20.86;50.20
75855;BME280;64502;59.976;30.316;2023-06-22T00:40:31;101071.03;;;20.86;50.03
75855;BME280;64502;59.976;30.316;2023-06-22T00:42:56;101069.47;;;20.83;49.80
75855;BME280;64502;59.976;30.316;2023-06-22T00:45:26;101066.09;;;20.81;49.91
75855;BME280;64502;59.976;30.316;2023-06-22T00:47:53;101064.72;;;20.77;50.69
75855;BME280;64502;59.976;30.316;2023-06-22T00:50:21;101060.50;;;20.75;50.40
75855;BME280;64502;59.976;30.316;2023-06-22T00:52:55;101065.00;;;20.74;49.61
75855;BME280;64502;59.976;30.316;2023-06-22T00:55:25;101061.63;;;20.72;50.30
75855;BME280;64502;59.976;30.316;2023-06-22T00:57:53;101056.25;;;20.72;49.96
75855;BME280;64502;59.976;30.316;2023-06-22T01:00:23;101060.63;;;20.73;51.12
75855;BME280;64502;59.976;30.316;2023-06-22T01:02:51;101060.78;;;20.72;49.93
75855;BME280;64502;59.976;30.316;2023-06-22T01:05:21;101056.25;;;20.72;50.28
75855;BME280;64502;59.976;30.316;2023-06-22T01:07:56;101056.25;;;20.72;49.88
75855;BME280;64502;59.976;30.316;2023-06-22T01:16:10;101052.84;;;20.80;48.86
75855;BME280;64502;59.976;30.316;2023-06-22T01:18:42;101050.16;;;20.80;49.89
75855;BME280;64502;59.976;30.316;2023-06-22T01:21:09;101048.19;;;20.82;49.81
75855;BME280;64502;59.976;30.316;2023-06-22T01:29:35;101046.13;;;21.03;49.73
75855;BME280;64502;59.976;30.316;2023-06-22T01:32:03;101051.84;;;21.09;49.40
75855;BME280;64502;59.976;30.316;2023-06-22T01:34:31;101046.34;;;21.10;49.51
75855;BME280;64502;59.976;30.316;2023-06-22T01:36:58;101046.03;;;21.13;49.46
75855;BME280;64502;59.976;30.316;2023-06-22T01:39:26;101046.03;;;21.13;49.68
75855;BME280;64502;59.976;30.316;2023-06-22T01:41:52;101044.38;;;21.12;49.59
75855;BME280;64502;59.976;30.316;2023-06-22T01:44:18;101037.59;;;21.08;49.87
75855;BME280;64502;59.976;30.316;2023-06-22T01:46:45;101032.41;;;21.06;49.77
75855;BME280;64502;59.976;30.316;2023-06-22T01:49:11;101037.06;;;21.04;49.01
75855;BME280;64502;59.976;30.316;2023-06-22T01:51:36;101039.19;;;21.01;49.82
75855;BME280;64502;59.976;30.316;2023-06-22T01:54:02;101034.97;;;20.98;49.43
75855;BME280;64502;59.976;30.316;2023-06-22T01:56:28;101035.97;;;20.97;49.50
75855;BME280;64502;59.976;30.316;2023-06-22T01:59:14;101042.03;;;20.99;48.50
75855;BME280;64502;59.976;30.316;2023-06-22T02:01:57;101036.78;;;20.98;49.02
75855;BME280;64502;59.976;30.316;2023-06-22T02:04:27;101037.78;;;20.97;49.29
75855;BME280;64502;59.976;30.316;2023-06-22T02:06:58;101034.28;;;20.96;49.43
75855;BME280;64502;59.976;30.316;2023-06-22T02:09:27;101035.13;;;20.97;49.73
75855;BME280;64502;59.976;30.316;2023-06-22T02:11:56;101041.03;;;21.00;49.34
75855;BME280;64502;59.976;30.316;2023-06-22T02:14:22;101031.81;;;21.03;49.32
75855;BME280;64502;59.976;30.316;2023-06-22T02:16:50;101038.59;;;21.07;49.59
75855;BME280;64502;59.976;30.316;2023-06-22T02:19:16;101021.91;;;21.13;49.04
75855;BME280;64502;59.976;30.316;2023-06-22T02:21:43;101027.66;;;21.18;49.11
75855;BME280;64502;59.976;30.316;2023-06-22T02:24:09;101021.97;;;21.21;49.42
75855;BME280;64502;59.976;30.316;2023-06-22T02:26:34;101021.97;;;21.21;49.04
75855;BME280;64502;59.976;30.316;2023-06-22T02:29:01;101020.31;;;21.20;49.74
75855;BME280;64502;59.976;30.316;2023-06-22T02:31:27;101021.97;;;21.21;49.29
75855;BME280;64502;59.976;30.316;2023-06-22T02:33:59;101023.81;;;21.21;49.18
75855;BME280;64502;59.976;30.316;2023-06-22T02:36:26;101017.31;;;21.23;49.33
75855;BME280;64502;59.976;30.316;2023-06-22T02:38:56;101021.53;;;21.26;49.27
75855;BME280;64502;59.976;30.316;2023-06-22T02:41:26;101014.03;;;21.29;49.51
75855;BME280;64502;59.976;30.316;2023-06-22T02:43:51;101007.50;;;21.32;49.22
75855;BME280;64502;59.976;30.316;2023-06-22T02:46:17;101009.19;;;21.33;49.25
75855;BME280;64502;59.976;30.316;2023-06-22T02:48:42;101013.56;;;21.34;49.14
75855;BME280;64502;59.976;30.316;2023-06-22T02:51:08;101010.72;;;21.36;48.89
75855;BME280;64502;59.976;30.316;2023-06-22T02:53:34;101000.84;;;21.36;48.84
75855;BME280;64502;59.976;30.316;2023-06-22T02:56:03;100998.03;;;21.38;49.18
75855;BME280;64502;59.976;30.316;2023-06-22T02:58:31;101001.25;;;21.41;49.14
75855;BME280;64502;59.976;30.316;2023-06-22T03:01:04;101006.47;;;21.43;49.08
75855;BME280;64502;59.976;30.316;2023-06-22T03:03:30;101009.53;;;21.48;48.91
75855;BME280;64502;59.976;30.316;2023-06-22T03:05:55;100999.03;;;21.55;49.04
75855;BME280;64502;59.976;30.316;2023-06-22T03:08:21;101007.31;;;21.61;48.52
75855;BME280;64502;59.976;30.316;2023-06-22T03:10:47;101012.75;;;21.69;48.40
75855;BME280;64502;59.976;30.316;2023-06-22T03:13:12;101026.09;;;21.79;48.00
75855;BME280;64502;59.976;30.316;2023-06-22T03:15:37;101025.19;;;21.88;48.13
75855;BME280;64502;59.976;30.316;2023-06-22T03:18:03;101037.22;;;22.02;48.12
75855;BME280;64502;59.976;30.316;2023-06-22T03:20:28;101026.91;;;22.15;47.86
75855;BME280;64502;59.976;30.316;2023-06-22T03:22:58;101026.34;;;22.30;47.82
75855;BME280;64502;59.976;30.316;2023-06-22T03:25:24;101023.25;;;22.43;46.99
75855;BME280;64502;59.976;30.316;2023-06-22T03:27:49;101018.25;;;22.56;46.92
75855;BME280;64502;59.976;30.316;2023-06-22T03:30:14;101007.91;;;22.69;46.30
75855;BME280;64502;59.976;30.316;2023-06-22T03:32:40;101007.31;;;22.83;45.83
75855;BME280;64502;59.976;30.316;2023-06-22T03:35:06;101003.19;;;22.97;45.95
75855;BME280;64502;59.976;30.316;2023-06-22T03:37:32;101001.03;;;23.09;45.13
75855;BME280;64502;59.976;30.316;2023-06-22T03:39:57;101003.88;;;23.16;45.08
75855;BME280;64502;59.976;30.316;2023-06-22T03:42:23;101011.34;;;23.22;44.89
75855;BME280;64502;59.976;30.316;2023-06-22T03:44:48;101001.91;;;23.26;45.29
75855;BME280;64502;59.976;30.316;2023-06-22T03:47:14;101004.94;;;23.31;45.01
75855;BME280;64502;59.976;30.316;2023-06-22T03:49:39;101000.91;;;23.35;45.04
75855;BME280;64502;59.976;30.316;2023-06-22T03:52:05;101003.78;;;23.34;44.89
75855;BME280;64502;59.976;30.316;2023-06-22T03:54:31;101006.63;;;23.32;45.09
75855;BME280;64502;59.976;30.316;2023-06-22T03:56:57;101004.78;;;23.33;45.20
75855;BME280;64502;59.976;30.316;2023-06-22T03:59:23;100999.41;;;23.33;45.03
75855;BME280;64502;59.976;30.316;2023-06-22T04:01:49;100988.63;;;23.33;44.96
75855;BME280;64502;59.976;30.316;2023-06-22T04:04:17;100997.22;;;23.36;45.18
75855;BME280;64502;59.976;30.316;2023-06-22T04:06:44;100995.38;;;23.37;45.40
75855;BME280;64502;59.976;30.316;2023-06-22T04:09:09;100990.66;;;23.39;45.00
75855;BME280;64502;59.976;30.316;2023-06-22T04:11:35;100994.53;;;23.44;45.04
75855;BME280;64502;59.976;30.316;2023-06-22T04:14:00;100987.13;;;23.46;44.73
75855;BME280;64502;59.976;30.316;2023-06-22T04:16:26;100985.78;;;23.51;44.57
75855;BME280;64502;59.976;30.316;2023-06-22T04:18:51;100981.06;;;23.53;44.81
75855;BME280;64502;59.976;30.316;2023-06-22T04:21:17;100985.28;;;23.55;44.54
75855;BME280;64502;59.976;30.316;2023-06-22T04:23:44;100980.41;;;23.59;44.51
75855;BME280;64502;59.976;30.316;2023-06-22T04:26:11;100979.91;;;23.63;44.87
75855;BME280;64502;59.976;30.316;2023-06-22T04:28:36;100986.28;;;23.70;44.15
75855;BME280;64502;59.976;30.316;2023-06-22T04:31:02;100979.75;;;23.73;43.97
75855;BME280;64502;59.976;30.316;2023-06-22T04:33:28;100980.44;;;23.75;44.02
75855;BME280;64502;59.976;30.316;2023-06-22T04:35:57;100981.94;;;23.78;43.82
75855;BME280;64502;59.976;30.316;2023-06-22T04:38:23;100981.59;;;23.81;44.17
75855;BME280;64502;59.976;30.316;2023-06-22T04:40:49;100983.13;;;23.83;43.82
75855;BME280;64502;59.976;30.316;2023-06-22T04:43:15;100982.63;;;23.88;44.19
75855;BME280;64502;59.976;30.316;2023-06-22T04:45:41;100984.97;;;23.91;43.92
75855;BME280;64502;59.976;30.316;2023-06-22T04:48:06;100979.72;;;23.98;43.87
75855;BME280;64502;59.976;30.316;2023-06-22T04:50:32;100973.81;;;24.10;44.10
75855;BME280;64502;59.976;30.316;2023-06-22T04:52:57;100976.84;;;24.24;43.80
75855;BME280;64502;59.976;30.316;2023-06-22T04:55:23;100973.59;;;24.36;43.13
75855;BME280;64502;59.976;30.316;2023-06-22T04:57:51;100966.69;;;24.42;42.92
75855;BME280;64502;59.976;30.316;2023-06-22T05:00:18;100972.91;;;24.51;43.12
75855;BME280;64502;59.976;30.316;2023-06-22T05:02:48;100963.59;;;24.62;42.16
75855;BME280;64502;59.976;30.316;2023-06-22T05:05:15;100963.31;;;24.79;42.22
75855;BME280;64502;59.976;30.316;2023-06-22T05:07:45;100959.72;;;24.95;42.51
75855;BME280;64502;59.976;30.316;2023-06-22T05:10:12;100950.56;;;25.05;41.63
75855;BME280;64502;59.976;30.316;2023-06-22T05:12:39;100949.66;;;25.12;41.31
75855;BME280;64502;59.976;30.316;2023-06-22T05:15:07;100945.78;;;25.15;40.85
75855;BME280;64502;59.976;30.316;2023-06-22T05:17:32;100942.06;;;25.16;40.86
75855;BME280;64502;59.976;30.316;2023-06-22T05:19:58;100938.66;;;25.22;40.62
75855;BME280;64502;59.976;30.316;2023-06-22T05:22:23;100939.31;;;25.24;40.93
75855;BME280;64502;59.976;30.316;2023-06-22T05:24:49;100931.84;;;25.26;40.17
75855;BME280;64502;59.976;30.316;2023-06-22T05:27:14;100934.56;;;25.26;39.92
75855;BME280;64502;59.976;30.316;2023-06-22T05:29:40;100925.91;;;25.31;40.44
75855;BME280;64502;59.976;30.316;2023-06-22T05:32:06;100930.59;;;25.37;40.68
75855;BME280;64502;59.976;30.316;2023-06-22T05:34:32;100932.75;;;25.41;40.24
75855;BME280;64502;59.976;30.316;2023-06-22T05:36:57;100930.22;;;25.40;39.68
75855;BME280;64502;59.976;30.316;2023-06-22T05:39:24;100927.34;;;25.41;40.32
75855;BME280;64502;59.976;30.316;2023-06-22T05:41:51;100927.66;;;25.46;39.74
75855;BME280;64502;59.976;30.316;2023-06-22T05:44:16;100921.50;;;25.53;40.00
75855;BME280;64502;59.976;30.316;2023-06-22T05:46:43;100911.38;;;25.55;40.52
75855;BME280;64502;59.976;30.316;2023-06-22T05:49:11;100913.53;;;25.59;40.02
75855;BME280;64502;59.976;30.316;2023-06-22T05:51:37;100910.16;;;25.57;39.99
75855;BME280;64502;59.976;30.316;2023-06-22T05:54:02;100904.09;;;25.55;39.62
75855;BME280;64502;59.976;30.316;2023-06-22T05:56:28;100905.31;;;25.53;40.38
75855;BME280;64502;59.976;30.316;2023-06-22T05:58:53;100913.59;;;25.51;39.90
75855;BME280;64502;59.976;30.316;2023-06-22T06:01:18;100903.13;;;25.48;40.12
75855;BME280;64502;59.976;30.316;2023-06-22T06:03:44;100917.00;;;25.45;39.55
75855;BME280;64502;59.976;30.316;2023-06-22T06:06:10;100904.72;;;25.42;39.47
75855;BME280;64502;59.976;30.316;2023-06-22T06:08:37;100899.66;;;25.39;40.06
75855;BME280;64502;59.976;30.316;2023-06-22T06:11:02;100893.72;;;25.44;40.32
75855;BME280;64502;59.976;30.316;2023-06-22T06:13:28;100888.09;;;25.54;39.48
75855;BME280;64502;59.976;30.316;2023-06-22T06:15:53;100886.50;;;25.59;39.01
75855;BME280;64502;59.976;30.316;2023-06-22T06:18:20;100877.66;;;25.65;38.99
75855;BME280;64502;59.976;30.316;2023-06-22T06:20:46;100879.81;;;25.70;39.51
75855;BME280;64502;59.976;30.316;2023-06-22T06:23:12;100877.03;;;25.78;38.77
75855;BME280;64502;59.976;30.316;2023-06-22T06:25:37;100867.19;;;25.85;39.08
75855;BME280;64502;59.976;30.316;2023-06-22T06:28:03;100871.19;;;25.89;39.12
75855;BME280;64502;59.976;30.316;2023-06-22T06:30:28;100870.44;;;25.96;38.39
75855;BME280;64502;59.976;30.316;2023-06-22T06:32:54;100870.44;;;25.96;38.45
75855;BME280;64502;59.976;30.316;2023-06-22T06:35:19;100873.22;;;26.02;38.18
75855;BME280;64502;59.976;30.316;2023-06-22T06:37:46;100869.81;;;26.08;37.97
75855;BME280;64502;59.976;30.316;2023-06-22T06:40:13;100874.63;;;26.13;38.19
75855;BME280;64502;59.976;30.316;2023-06-22T06:42:44;100865.31;;;26.16;37.88
75855;BME280;64502;59.976;30.316;2023-06-22T06:45:21;100861.38;;;26.18;37.97
75855;BME280;64502;59.976;30.316;2023-06-22T06:47:51;100857.78;;;26.11;37.86
75855;BME280;64502;59.976;30.316;2023-06-22T06:50:17;100846.56;;;26.14;38.01
75855;BME280;64502;59.976;30.316;2023-06-22T06:52:43;100842.06;;;26.21;37.37
75855;BME280;64502;59.976;30.316;2023-06-22T06:55:09;100844.28;;;26.32;37.50
75855;BME280;64502;59.976;30.316;2023-06-22T06:57:37;100845.22;;;26.40;37.41
75855;BME280;64502;59.976;30.316;2023-06-22T07:00:07;100843.44;;;26.47;37.33
75855;BME280;64502;59.976;30.316;2023-06-22T07:02:38;100852.94;;;26.43;37.36
75855;BME280;64502;59.976;30.316;2023-06-22T07:05:04;100849.41;;;26.42;37.93
75855;BME280;64502;59.976;30.316;2023-06-22T07:07:30;100855.75;;;26.49;37.42
75855;BME280;64502;59.976;30.316;2023-06-22T07:09:56;100849.16;;;26.52;37.36
75855;BME280;64502;59.976;30.316;2023-06-22T07:12:21;100847.16;;;26.46;37.41
75855;BME280;64502;59.976;30.316;2023-06-22T07:14:47;100838.78;;;26.55;37.53
75855;BME280;64502;59.976;30.316;2023-06-22T07:17:12;100844.72;;;26.66;37.28
75855;BME280;64502;59.976;30.316;2023-06-22T07:19:38;100840.19;;;26.73;37.29
75855;BME280;64502;59.976;30.316;2023-06-22T07:22:04;100841.91;;;26.74;36.75
75855;BME280;64502;59.976;30.316;2023-06-22T07:24:29;100840.47;;;26.78;37.30
75855;BME280;64502;59.976;30.316;2023-06-22T07:26:55;100830.06;;;26.82;37.42
75855;BME280;64502;59.976;30.316;2023-06-22T07:29:24;100826.97;;;27.06;37.66
75855;BME280;64502;59.976;30.316;2023-06-22T07:31:50;100828.47;;;27.09;37.14
75855;BME280;64502;59.976;30.316;2023-06-22T07:34:18;100821.13;;;27.24;36.60
75855;BME280;64502;59.976;30.316;2023-06-22T07:36:44;100821.28;;;27.44;35.54
75855;BME280;64502;59.976;30.316;2023-06-22T07:39:09;100810.38;;;27.65;35.30
75855;BME280;64502;59.976;30.316;2023-06-22T07:41:35;100807.19;;;27.90;35.22
75855;BME280;64502;59.976;30.316;2023-06-22T07:44:02;100805.84;;;28.14;35.26
75855;BME280;64502;59.976;30.316;2023-06-22T07:46:27;100798.19;;;28.31;35.08
75855;BME280;64502;59.976;30.316;2023-06-22T07:48:55;100796.19;;;28.53;34.17
75855;BME280;64502;59.976;30.316;2023-06-22T07:51:21;100794.97;;;28.75;34.26
75855;BME280;64502;59.976;30.316;2023-06-22T07:53:46;100795.63;;;28.97;33.16
75855;BME280;64502;59.976;30.316;2023-06-22T07:56:13;100790.84;;;29.19;32.40
75855;BME280;64502;59.976;30.316;2023-06-22T07:58:39;100792.91;;;29.44;31.80
75855;BME280;64502;59.976;30.316;2023-06-22T08:01:04;100798.09;;;29.59;31.90
75855;BME280;64502;59.976;30.316;2023-06-22T08:03:32;100794.94;;;29.62;31.93
75855;BME280;64502;59.976;30.316;2023-06-22T08:05:57;100784.50;;;29.59;31.41
75855;BME280;64502;59.976;30.316;2023-06-22T08:08:23;100790.81;;;29.66;31.33
75855;BME280;64502;59.976;30.316;2023-06-22T08:10:49;100786.34;;;29.85;31.36
75855;BME280;64502;59.976;30.316;2023-06-22T08:13:14;100784.81;;;30.02;30.90
75855;BME280;64502;59.976;30.316;2023-06-22T08:15:39;100780.53;;;30.20;30.63
75855;BME280;64502;59.976;30.316;2023-06-22T08:18:05;100779.03;;;30.37;30.73
75855;BME280;64502;59.976;30.316;2023-06-22T08:20:30;100774.09;;;30.52;30.51
75855;BME280;64502;59.976;30.316;2023-06-22T08:22:56;100765.75;;;30.79;30.23
75855;BME280;64502;59.976;30.316;2023-06-22T08:25:23;100763.22;;;31.09;30.09
75855;BME280;64502;59.976;30.316;2023-06-22T08:27:49;100765.06;;;31.40;29.36
75855;BME280;64502;59.976;30.316;2023-06-22T08:30:15;100756.13;;;31.52;29.15
75855;BME280;64502;59.976;30.316;2023-06-22T08:32:41;100755.34;;;31.45;29.19
75855;BME280;64502;59.976;30.316;2023-06-22T08:35:07;100754.63;;;31.31;29.42
75855;BME280;64502;59.976;30.316;2023-06-22T08:37:33;100759.00;;;31.13;29.39
75855;BME280;64502;59.976;30.316;2023-06-22T08:40:01;100759.28;;;31.05;29.47
75855;BME280;64502;59.976;30.316;2023-06-22T08:42:29;100752.84;;;31.18;29.71
75855;BME280;64502;59.976;30.316;2023-06-22T08:44:55;100745.38;;;31.32;29.59
75855;BME280;64502;59.976;30.316;2023-06-22T08:47:20;100737.91;;;31.46;29.30
75855;BME280;64502;59.976;30.316;2023-06-22T08:49:46;100751.19;;;31.79;29.04
75855;BME280;64502;59.976;30.316;2023-06-22T08:52:12;100740.22;;;32.16;28.18
75855;BME280;64502;59.976;30.316;2023-06-22T08:54:38;100731.03;;;32.40;28.43
75855;BME280;64502;59.976;30.316;2023-06-22T08:57:03;100737.91;;;32.73;27.93
75855;BME280;64502;59.976;30.316;2023-06-22T08:59:29;100734.91;;;33.05;27.33
75855;BME280;64502;59.976;30.316;2023-06-22T09:01:55;100732.97;;;33.29;26.82
75855;BME280;64502;59.976;30.316;2023-06-22T09:04:20;100727.50;;;33.29;26.40
75855;BME280;64502;59.976;30.316;2023-06-22T09:06:48;100720.72;;;33.43;26.43
75855;BME280;64502;59.976;30.316;2023-06-22T09:09:16;100719.88;;;33.43;26.53
75855;BME280;64502;59.976;30.316;2023-06-22T09:11:42;100726.88;;;33.38;26.41
75855;BME280;64502;59.976;30.316;2023-06-22T09:14:08;100731.31;;;33.28;26.65
75855;BME280;64502;59.976;30.316;2023-06-22T09:16:34;100722.47;;;32.79;26.90
75855;BME280;64502;59.976;30.316;2023-06-22T09:19:00;100727.97;;;32.37;27.86
75855;BME280;64502;59.976;30.316;2023-06-22T09:21:25;100722.84;;;32.40;27.44
75855;BME280;64502;59.976;30.316;2023-06-22T09:23:51;100725.41;;;32.54;27.96
75855;BME280;64502;59.976;30.316;2023-06-22T09:26:19;100725.69;;;32.76;27.15
75855;BME280;64502;59.976;30.316;2023-06-22T09:28:45;100715.69;;;32.93;27.00
75855;BME280;64502;59.976;30.316;2023-06-22T09:31:10;100719.91;;;33.19;26.97
75855;BME280;64502;59.976;30.316;2023-06-22T09:33:36;100710.25;;;33.28;26.90
75855;BME280;64502;59.976;30.316;2023-06-22T09:36:05;100713.72;;;33.24;26.80
75855;BME280;64502;59.976;30.316;2023-06-22T09:38:34;100716.44;;;33.12;27.09
75855;BME280;64502;59.976;30.316;2023-06-22T09:41:00;100708.97;;;33.07;27.19
75855;BME280;64502;59.976;30.316;2023-06-22T09:43:27;100699.22;;;33.23;27.31
75855;BME280;64502;59.976;30.316;2023-06-22T09:45:52;100695.25;;;33.43;26.96
75855;BME280;64502;59.976;30.316;2023-06-22T09:48:17;100695.84;;;33.85;26.39
75855;BME280;64502;59.976;30.316;2023-06-22T09:50:43;100694.06;;;34.19;26.04
75855;BME280;64502;59.976;30.316;2023-06-22T09:53:09;100692.56;;;34.12;25.42
75855;BME280;64502;59.976;30.316;2023-06-22T09:55:34;100692.44;;;34.35;25.20
75855;BME280;64502;59.976;30.316;2023-06-22T09:58:00;100683.03;;;34.31;25.14
75855;BME280;64502;59.976;30.316;2023-06-22T10:00:25;100662.22;;;34.47;25.04
75855;BME280;64502;59.976;30.316;2023-06-22T10:02:52;100671.84;;;34.83;25.07
75855;BME280;64502;59.976;30.316;2023-06-22T10:05:17;100668.19;;;35.11;24.69
75855;BME280;64502;59.976;30.316;2023-06-22T10:07:43;100662.72;;;35.33;24.55
75855;BME280;64502;59.976;30.316;2023-06-22T10:10:10;100664.84;;;35.53;24.04
75855;BME280;64502;59.976;30.316;2023-06-22T10:12:35;100658.56;;;35.31;23.71
75855;BME280;64502;59.976;30.316;2023-06-22T10:15:01;100651.16;;;34.76;24.02
75855;BME280;64502;59.976;30.316;2023-06-22T10:17:26;100656.06;;;34.40;23.98
75855;BME280;64502;59.976;30.316;2023-06-22T10:19:52;100653.72;;;34.48;24.59
75855;BME280;64502;59.976;30.316;2023-06-22T10:22:17;100651.59;;;34.84;23.79
75855;BME280;64502;59.976;30.316;2023-06-22T10:24:43;100651.50;;;34.79;23.57
75855;BME280;64502;59.976;30.316;2023-06-22T10:27:10;100644.78;;;34.36;24.25
75855;BME280;64502;59.976;30.316;2023-06-22T10:29:36;100634.81;;;34.30;24.84
75855;BME280;64502;59.976;30.316;2023-06-22T10:32:02;100627.84;;;34.56;24.92
75855;BME280;64502;59.976;30.316;2023-06-22T10:34:27;100625.69;;;34.97;24.02
75855;BME280;64502;59.976;30.316;2023-06-22T10:36:53;100615.59;;;35.42;24.01
75855;BME280;64502;59.976;30.316;2023-06-22T10:39:18;100623.84;;;35.42;23.54
75855;BME280;64502;59.976;30.316;2023-06-22T10:41:44;100621.03;;;34.98;24.21
75855;BME280;64502;59.976;30.316;2023-06-22T10:44:09;100608.75;;;34.28;25.06
75855;BME280;64502;59.976;30.316;2023-06-22T10:46:35;100624.34;;;33.53;25.69
75855;BME280;64502;59.976;30.316;2023-06-22T10:49:00;100622.66;;;33.00;26.77
75855;BME280;64502;59.976;30.316;2023-06-22T10:51:26;100631.88;;;32.40;27.82
75855;BME280;64502;59.976;30.316;2023-06-22T10:53:53;100629.13;;;31.56;29.11
75855;BME280;64502;59.976;30.316;2023-06-22T10:56:19;100661.72;;;30.39;30.57
75855;BME280;64502;59.976;30.316;2023-06-22T10:58:45;100665.81;;;29.26;38.35
75855;BME280;64502;59.976;30.316;2023-06-22T11:01:10;100651.22;;;28.27;41.41
75855;BME280;64502;59.976;30.316;2023-06-22T11:03:36;100647.94;;;27.71;46.51
75855;BME280;64502;59.976;30.316;2023-06-22T11:06:01;100653.66;;;27.41;42.36
75855;BME280;64502;59.976;30.316;2023-06-22T11:08:27;100626.78;;;27.53;44.24
75855;BME280;64502;59.976;30.316;2023-06-22T11:10:52;100621.53;;;27.93;45.95
75855;BME280;64502;59.976;30.316;2023-06-22T11:13:18;100621.16;;;28.36;43.25
75855;BME280;64502;59.976;30.316;2023-06-22T11:15:43;100615.50;;;28.84;42.41
75855;BME280;64502;59.976;30.316;2023-06-22T11:18:09;100610.56;;;29.39;41.71
75855;BME280;64502;59.976;30.316;2023-06-22T11:20:34;100602.88;;;30.06;39.58
75855;BME280;64502;59.976;30.316;2023-06-22T11:23:04;100608.69;;;30.91;36.66
75855;BME280;64502;59.976;30.316;2023-06-22T11:25:30;100610.72;;;31.81;34.15
75855;BME280;64502;59.976;30.316;2023-06-22T11:27:56;100610.31;;;32.50;31.94
75855;BME280;64502;59.976;30.316;2023-06-22T11:30:21;100602.69;;;33.11;30.59
75855;BME280;64502;59.976;30.316;2023-06-22T11:32:48;100606.88;;;33.54;29.31
75855;BME280;64502;59.976;30.316;2023-06-22T11:35:13;100596.47;;;33.68;29.04
75855;BME280;64502;59.976;30.316;2023-06-22T11:37:39;100600.66;;;33.58;28.87
75855;BME280;64502;59.976;30.316;2023-06-22T11:40:05;100600.78;;;33.52;29.08
75855;BME280;64502;59.976;30.316;2023-06-22T11:42:32;100591.69;;;33.34;29.47
75855;BME280;64502;59.976;30.316;2023-06-22T11:44:57;100589.72;;;33.18;29.93
75855;BME280;64502;59.976;30.316;2023-06-22T11:47:22;100588.56;;;33.02;30.62
75855;BME280;64502;59.976;30.316;2023-06-22T11:49:48;100591.66;;;32.82;31.05
75855;BME280;64502;59.976;30.316;2023-06-22T11:52:13;100594.03;;;32.67;31.31
75855;BME280;64502;59.976;30.316;2023-06-22T11:54:39;100584.75;;;32.44;32.31
75855;BME280;64502;59.976;30.316;2023-06-22T11:57:04;100579.63;;;32.24;31.42
75855;BME280;64502;59.976;30.316;2023-06-22T11:59:30;100579.81;;;31.99;32.66
75855;BME280;64502;59.976;30.316;2023-06-22T12:01:57;100575.63;;;31.85;32.80
75855;BME280;64502;59.976;30.316;2023-06-22T12:04:23;100566.09;;;31.76;32.85
75855;BME280;64502;59.976;30.316;2023-06-22T12:06:49;100566.19;;;31.69;33.25
75855;BME280;64502;59.976;30.316;2023-06-22T12:09:14;100571.28;;;31.66;33.12
75855;BME280;64502;59.976;30.316;2023-06-22T12:11:40;100571.66;;;31.69;33.33
75855;BME280;64502;59.976;30.316;2023-06-22T12:14:05;100567.50;;;31.78;32.81
75855;BME280;64502;59.976;30.316;2023-06-22T12:16:31;100566.34;;;31.86;33.22
75855;BME280;64502;59.976;30.316;2023-06-22T12:18:56;100568.19;;;31.92;33.79
75855;BME280;64502;59.976;30.316;2023-06-22T12:21:22;100565.81;;;31.96;32.88
75855;BME280;64502;59.976;30.316;2023-06-22T12:23:47;100567.97;;;32.05;32.52
75855;BME280;64502;59.976;30.316;2023-06-22T12:26:13;100563.09;;;32.19;32.30
75855;BME280;64502;59.976;30.316;2023-06-22T12:28:38;100562.31;;;32.31;31.89
75855;BME280;64502;59.976;30.316;2023-06-22T12:31:04;100560.78;;;32.46;31.73
75855;BME280;64502;59.976;30.316;2023-06-22T12:33:29;100564.00;;;32.67;31.51
75855;BME280;64502;59.976;30.316;2023-06-22T12:35:56;100554.22;;;32.83;31.62
75855;BME280;64502;59.976;30.316;2023-06-22T12:38:21;100560.25;;;32.97;31.22
75855;BME280;64502;59.976;30.316;2023-06-22T12:40:47;100566.69;;;32.79;31.23
75855;BME280;64502;59.976;30.316;2023-06-22T12:43:14;100558.19;;;32.63;31.22
75855;BME280;64502;59.976;30.316;2023-06-22T12:45:40;100570.97;;;32.39;31.55
75855;BME280;64502;59.976;30.316;2023-06-22T12:48:05;100564.66;;;32.15;32.35